Time,TemperatureF,DewpointF,PressureIn,WindDirection,WindDirectionDegrees,WindSpeedMPH,WindSpeedGustMPH,Humidity,HourlyPrecipIn,Conditions,Clouds,dailyrainin,SoftwareType,DateUTC
2013-07-20 00:03:00,71.4,48.4,29.92,SW,225,0.0,0.0,44,0.00,CLR,CLR,0.00,WeatherDisplay:10.37,2013-07-20 04:03:00,
2013-07-20 00:18:00,71.4,49.0,29.95,SW,225,0.0,0.0,45,0.00,CLR,CLR,0.00,WeatherDisplay:10.37,2013-07-20 04:18:00,
2013-07-20 00:33:00,71.2,51.6,29.95,SW,225,0.0,1.0,50,0.00,CLR,CLR,0.00,WeatherDisplay:10.37,2013-07-20 04:33:00,
2013-07-20 00:48:00,71.2,51.1,29.95,SW,220,1.0,2.0,49,0.00,CLR,CLR,0.00,WeatherDisplay:10.37,2013-07-20 04:48:00,
2013-07-20 01:03:00,71.2,50.5,29.95,SW,225,2.0,3.0,48,0.00,CLR,CLR,0.00,WeatherDisplay:10.37,2013-07-20 05:03:00,
2013-07-20 01:18:00,71.1,49.2,29.95,SW,225,1.0,3.0,46,0.00,CLR,CLR,0.00,WeatherDisplay:10.37,2013-07-20 05:18:00,
2013-07-20 01:33:00,71.1,49.2,29.95,SW,220,1.0,2.0,46,0.00,CLR,CLR,0.00,WeatherDisplay:10.37,2013-07-20 05:33:00,
2013-07-20 01:48:00,71.1,50.9,29.95,SSW,197,2.0,3.0,49,0.00,CLR,CLR,0.00,WeatherDisplay:10.37,2013-07-20 05:48:00,
2013-07-20 02:03:00,71.1,56.0,29.95,SW,225,2.0,2.0,59,0.00,CLR,CLR,0.00,WeatherDisplay:10.37,2013-07-20 06:03:00,
2013-07-20 02:18:00,71.1,51.5,29.95,South,180,1.0,2.0,50,0.00,CLR,CLR,0.00,WeatherDisplay:10.37,2013-07-20 06:18:00,
2013-07-20 02:33:00,71.2,51.1,29.95,SSW,202,0.0,2.0,49,0.00,CLR,CLR,0.00,WeatherDisplay:10.37,2013-07-20 06:33:00,
2013-07-20 02:48:00,71.8,56.2,29.95,SW,225,1.0,2.0,58,0.00,CLR,CLR,0.00,WeatherDisplay:10.37,2013-07-20 06:48:00,
2013-07-20 03:03:00,72.7,55.6,29.98,SW,225,1.0,2.0,55,0.00,CLR,CLR,0.00,WeatherDisplay:10.37,2013-07-20 07:03:00,
2013-07-20 03:18:00,73.4,50.2,29.98,SSW,211,2.0,3.0,44,0.00,CLR,CLR,0.00,WeatherDisplay:10.37,2013-07-20 07:18:00,
2013-07-20 03:19:00,73.8,73.2,29.98,SW,229,3.0,3.0,98,0.00,CLR,CLR,0.00,WeatherDisplay:10.37,2013-07-20 07:19:00,
2013-07-20 03:20:00,73.8,73.2,29.98,SW,229,3.0,0.0,98,0.00,CLR,CLR,0.00,WeatherDisplay:10.37,2013-07-20 07:20:00,
2013-07-20 03:21:00,73.8,73.2,29.98,SW,229,3.0,0.0,98,0.00,CLR,CLR,0.00,WeatherDisplay:10.37,2013-07-20 07:21:00,
2013-07-20 03:22:00,73.8,73.2,29.98,SW,229,3.0,0.0,98,0.00,CLR,CLR,0.00,WeatherDisplay:10.37,2013-07-20 07:22:00,
2013-07-20 03:23:00,73.8,73.2,29.98,SW,229,3.0,0.0,98,0.00,CLR,CLR,0.00,WeatherDisplay:10.37,2013-07-20 07:23:00,
2013-07-20 03:24:00,73.8,73.2,29.98,SW,229,3.0,0.0,98,0.00,CLR,CLR,0.00,WeatherDisplay:10.37,2013-07-20 07:24:00,
2013-07-20 03:25:00,73.8,73.2,29.98,SW,229,3.0,0.0,98,0.00,CLR,CLR,0.00,WeatherDisplay:10.37,2013-07-20 07:25:00,
2013-07-20 03:26:00,73.8,73.2,29.98,SW,229,3.0,0.0,98,0.00,CLR,CLR,0.00,WeatherDisplay:10.37,2013-07-20 07:26:00,
2013-07-20 03:27:00,73.8,73.2,29.98,SW,229,3.0,0.0,98,0.00,CLR,CLR,0.00,WeatherDisplay:10.37,2013-07-20 07:27:00,
2013-07-20 03:28:00,73.8,73.2,29.98,SW,229,3.0,0.0,98,0.00,CLR,CLR,0.00,WeatherDisplay:10.37,2013-07-20 07:28:00,
2013-07-20 03:29:00,73.8,73.2,29.98,SW,229,3.0,0.0,98,0.00,CLR,CLR,0.00,WeatherDisplay:10.37,2013-07-20 07:29:00,
2013-07-20 03:30:00,73.8,73.2,29.98,SW,229,3.0,0.0,98,0.00,CLR,CLR,0.00,WeatherDisplay:10.37,2013-07-20 07:30:00,
2013-07-20 03:31:00,73.8,73.2,29.98,SW,229,3.0,0.0,98,0.00,CLR,CLR,0.00,WeatherDisplay:10.37,2013-07-20 07:31:00,
2013-07-20 03:32:00,73.8,73.2,29.98,SW,229,3.0,0.0,98,0.00,CLR,CLR,0.00,WeatherDisplay:10.37,2013-07-20 07:32:00,
2013-07-20 03:33:00,73.8,73.2,29.98,SW,229,3.0,0.0,98,0.00,CLR,CLR,0.00,WeatherDisplay:10.37,2013-07-20 07:33:00,
2013-07-20 08:32:00,73.8,73.2,29.98,SW,225,5.4,5.4,98,0.00,CLR,,0.00,WeatherDisplay:10.37,2013-07-20 12:32:00,
2013-07-20 08:33:00,73.8,73.2,29.98,WSW,248,2.6,3.1,98,0.00,CLR,,0.00,WeatherDisplay:10.37,2013-07-20 12:33:00,
2013-07-20 08:38:00,74.3,73.1,29.98,SW,225,2.3,2.3,96,0.00,CLR,,0.00,WeatherDisplay:10.37,2013-07-20 12:38:00,
2013-07-20 08:43:00,74.5,72.3,29.98,SW,225,3.5,3.5,93,0.00,CLR,,0.00,WeatherDisplay:10.37,2013-07-20 12:43:00,
2013-07-20 08:48:00,74.8,72.4,29.98,SW,225,5.4,5.4,92,0.00,CLR,,0.00,WeatherDisplay:10.37,2013-07-20 12:48:00,
2013-07-20 08:53:00,75.2,72.1,29.98,SW,225,4.7,4.7,90,0.00,CLR,,0.00,WeatherDisplay:10.37,2013-07-20 12:53:00,
2013-07-20 08:58:00,75.6,72.1,29.98,South,180,3.5,3.5,89,0.00,CLR,,0.00,WeatherDisplay:10.37,2013-07-20 12:58:00,
2013-07-20 09:03:00,76.1,72.6,29.98,SW,225,5.8,5.8,89,0.00,CLR,,0.00,WeatherDisplay:10.37,2013-07-20 13:03:00,
2013-07-20 09:08:00,76.5,72.3,29.98,SW,225,5.8,5.8,87,0.00,CLR,,0.00,WeatherDisplay:10.37,2013-07-20 13:08:00,
2013-07-20 09:13:00,76.6,72.1,29.98,WSW,248,5.8,5.8,86,0.00,CLR,,0.00,WeatherDisplay:10.37,2013-07-20 13:13:00,
2013-07-20 09:18:00,76.8,72.3,29.98,SW,225,5.8,5.8,86,0.00,CLR,,0.00,WeatherDisplay:10.37,2013-07-20 13:18:00,
2013-07-20 09:23:00,77.0,71.8,29.98,WSW,248,4.6,4.6,84,0.00,CLR,,0.00,WeatherDisplay:10.37,2013-07-20 13:23:00,
2013-07-20 09:28:00,77.4,71.4,29.98,WSW,248,4.6,4.6,82,0.00,CLR,,0.00,WeatherDisplay:10.37,2013-07-20 13:28:00,
2013-07-20 09:33:00,77.7,71.1,29.98,SW,225,6.0,6.0,80,0.00,CLR,,0.00,WeatherDisplay:10.37,2013-07-20 13:33:00,
2013-07-20 09:38:00,77.9,70.9,29.98,SW,225,5.8,5.8,79,0.00,CLR,,0.00,WeatherDisplay:10.37,2013-07-20 13:38:00,
2013-07-20 09:43:00,78.3,71.6,29.98,SW,225,5.8,5.8,80,0.00,CLR,,0.00,WeatherDisplay:10.37,2013-07-20 13:43:00,
2013-07-20 09:48:00,78.4,71.0,29.98,South,180,8.7,8.7,78,0.00,CLR,,0.00,WeatherDisplay:10.37,2013-07-20 13:48:00,
2013-07-20 09:53:00,78.6,70.8,29.98,SW,225,9.2,9.2,77,0.00,CLR,,0.00,WeatherDisplay:10.37,2013-07-20 13:53:00,
2013-07-20 09:58:00,78.8,70.6,29.98,WSW,248,5.8,5.8,76,0.00,CLR,,0.00,WeatherDisplay:10.37,2013-07-20 13:58:00,
2013-07-20 10:03:00,79.3,71.5,29.98,South,180,5.8,5.8,77,0.00,CLR,,0.00,WeatherDisplay:10.37,2013-07-20 14:03:00,
2013-07-20 10:08:00,79.9,71.6,29.98,SW,225,5.8,5.8,76,0.00,CLR,,0.00,WeatherDisplay:10.37,2013-07-20 14:08:00,
2013-07-20 10:13:00,80.2,72.0,29.98,West,270,8.1,8.1,76,0.00,CLR,,0.00,WeatherDisplay:10.37,2013-07-20 14:13:00,
2013-07-20 10:18:00,80.4,71.8,29.95,South,180,5.8,5.8,75,0.00,CLR,,0.00,WeatherDisplay:10.37,2013-07-20 14:18:00,
2013-07-20 10:23:00,81.0,72.3,29.95,SW,225,5.8,5.8,75,0.00,CLR,,0.00,WeatherDisplay:10.37,2013-07-20 14:23:00,
2013-07-20 10:28:00,81.7,73.0,29.95,West,270,9.2,9.2,75,0.00,CLR,,0.00,WeatherDisplay:10.37,2013-07-20 14:28:00,
2013-07-20 10:33:00,82.0,73.3,29.95,South,180,9.2,9.2,75,0.00,CLR,,0.00,WeatherDisplay:10.37,2013-07-20 14:33:00,
2013-07-20 10:38:00,82.0,72.9,29.95,SSW,202,5.8,6.4,74,0.00,CLR,,0.00,WeatherDisplay:10.37,2013-07-20 14:38:00,
2013-07-20 10:43:00,81.7,72.6,29.95,West,270,8.1,8.1,74,0.00,CLR,,0.00,WeatherDisplay:10.37,2013-07-20 14:43:00,
2013-07-20 10:48:00,82.4,73.3,29.95,West,270,5.8,5.8,74,0.00,CLR,,0.00,WeatherDisplay:10.37,2013-07-20 14:48:00,
2013-07-20 10:53:00,83.1,72.7,29.95,SW,225,7.4,7.4,71,0.00,CLR,,0.00,WeatherDisplay:10.37,2013-07-20 14:53:00,
2013-07-20 10:58:00,82.0,72.9,29.95,SW,225,6.9,6.9,74,0.00,CLR,,0.00,WeatherDisplay:10.37,2013-07-20 14:58:00,
2013-07-20 11:03:00,82.2,72.3,29.95,WSW,248,5.8,5.8,72,0.00,FEW,,0.00,WeatherDisplay:10.37,2013-07-20 15:03:00,
2013-07-20 11:08:00,82.2,73.1,29.95,SW,225,6.9,6.9,74,0.00,FEW,,0.00,WeatherDisplay:10.37,2013-07-20 15:08:00,
2013-07-20 11:13:00,82.9,72.6,29.95,WSW,248,6.9,6.9,71,0.00,FEW,,0.00,WeatherDisplay:10.37,2013-07-20 15:13:00,
2013-07-20 11:18:00,84.0,73.6,29.95,SW,225,7.6,7.6,71,0.00,FEW,,0.00,WeatherDisplay:10.37,2013-07-20 15:18:00,
2013-07-20 11:23:00,84.4,73.9,29.95,SSW,202,5.8,5.8,71,0.00,FEW,,0.00,WeatherDisplay:10.37,2013-07-20 15:23:00,
2013-07-20 11:28:00,84.2,72.5,29.95,SW,225,9.8,9.8,68,0.00,FEW,,0.00,WeatherDisplay:10.37,2013-07-20 15:28:00,
2013-07-20 11:33:00,83.1,71.9,29.98,SW,225,9.2,9.2,69,0.00,FEW,,0.00,WeatherDisplay:10.37,2013-07-20 15:33:00,
2013-07-20 11:38:00,84.9,73.2,29.98,SSW,202,8.1,8.1,68,0.00,FEW,,0.00,WeatherDisplay:10.37,2013-07-20 15:38:00,
2013-07-20 11:43:00,86.4,74.5,29.98,South,180,8.1,8.1,68,0.00,FEW,,0.00,WeatherDisplay:10.37,2013-07-20 15:43:00,
2013-07-20 11:48:00,83.8,72.6,29.95,South,180,8.1,8.1,69,0.00,FEW,,0.00,WeatherDisplay:10.37,2013-07-20 15:48:00,
2013-07-20 11:53:00,84.0,72.8,29.95,WSW,248,9.2,9.2,69,0.00,FEW,,0.00,WeatherDisplay:10.37,2013-07-20 15:53:00,
2013-07-20 11:58:00,82.9,71.7,29.95,WSW,248,6.9,6.9,69,0.00,FEW,,0.00,WeatherDisplay:10.37,2013-07-20 15:58:00,
2013-07-20 12:03:00,84.0,72.8,29.98,West,270,6.9,6.9,69,0.00,FEW,,0.00,WeatherDisplay:10.37,2013-07-20 16:03:00,
2013-07-20 12:08:00,84.4,72.7,29.98,WSW,248,9.2,9.2,68,0.00,FEW,,0.00,WeatherDisplay:10.37,2013-07-20 16:08:00,
2013-07-20 12:13:00,86.7,74.9,29.98,SW,225,8.5,8.5,68,0.00,FEW,,0.00,WeatherDisplay:10.37,2013-07-20 16:13:00,
2013-07-20 12:18:00,86.9,75.1,29.98,SW,225,7.6,7.6,68,0.00,FEW,,0.00,WeatherDisplay:10.37,2013-07-20 16:18:00,
2013-07-20 12:23:00,86.7,74.9,29.98,SW,225,5.8,5.8,68,0.00,FEW,,0.00,WeatherDisplay:10.37,2013-07-20 16:23:00,
2013-07-20 12:28:00,86.7,74.9,29.98,SW,225,5.8,5.8,68,0.00,FEW,,0.00,WeatherDisplay:10.37,2013-07-20 16:28:00,
2013-07-20 12:33:00,86.7,74.9,29.95,SW,225,8.1,8.1,68,0.00,FEW,,0.00,WeatherDisplay:10.37,2013-07-20 16:33:00,
2013-07-20 12:38:00,87.1,75.2,29.95,South,180,8.1,8.1,68,0.00,FEW,,0.00,WeatherDisplay:10.37,2013-07-20 16:38:00,
2013-07-20 12:43:00,87.4,75.6,29.95,SW,225,8.1,8.1,68,0.00,FEW,,0.00,WeatherDisplay:10.37,2013-07-20 16:43:00,
2013-07-20 12:48:00,85.6,73.9,29.95,WSW,248,6.9,6.9,68,0.00,FEW,,0.00,WeatherDisplay:10.37,2013-07-20 16:48:00,
2013-07-20 12:53:00,87.6,75.7,29.95,South,180,8.1,8.1,68,0.00,FEW,,0.00,WeatherDisplay:10.37,2013-07-20 16:53:00,
2013-07-20 12:58:00,87.1,75.2,29.95,West,270,6.9,6.9,68,0.00,FEW,,0.00,WeatherDisplay:10.37,2013-07-20 16:58:00,
2013-07-20 13:03:00,87.6,75.7,29.95,West,270,8.1,8.1,68,0.00,CLR,,0.00,WeatherDisplay:10.37,2013-07-20 17:03:00,
2013-07-20 13:08:00,87.4,75.6,29.95,SW,225,5.8,5.8,68,0.00,CLR,,0.00,WeatherDisplay:10.37,2013-07-20 17:08:00,
2013-07-20 13:13:00,86.4,74.5,29.95,South,180,8.1,8.1,68,0.00,CLR,,0.00,WeatherDisplay:10.37,2013-07-20 17:13:00,
2013-07-20 13:18:00,86.2,74.4,29.95,SW,225,6.7,6.7,68,0.00,CLR,,0.00,WeatherDisplay:10.37,2013-07-20 17:18:00,
2013-07-20 13:23:00,86.2,74.4,29.95,WSW,248,9.2,9.2,68,0.00,CLR,,0.00,WeatherDisplay:10.37,2013-07-20 17:23:00,
2013-07-20 13:28:00,87.6,75.7,29.95,WSW,248,8.1,8.1,68,0.00,CLR,,0.00,WeatherDisplay:10.37,2013-07-20 17:28:00,
2013-07-20 13:33:00,88.2,76.3,29.92,SW,225,5.8,5.8,68,0.00,CLR,,0.00,WeatherDisplay:10.37,2013-07-20 17:33:00,
2013-07-20 13:38:00,86.5,74.7,29.92,SSW,202,10.4,10.4,68,0.00,CLR,,0.00,WeatherDisplay:10.37,2013-07-20 17:38:00,
2013-07-20 13:43:00,88.0,76.1,29.92,West,270,10.4,10.4,68,0.00,CLR,,0.00,WeatherDisplay:10.37,2013-07-20 17:43:00,
2013-07-20 13:48:00,87.1,75.2,29.95,SW,225,5.6,5.6,68,0.00,CLR,,0.00,WeatherDisplay:10.37,2013-07-20 17:48:00,
2013-07-20 13:53:00,88.9,76.9,29.95,West,270,9.2,9.2,68,0.00,CLR,,0.00,WeatherDisplay:10.37,2013-07-20 17:53:00,
2013-07-20 13:58:00,88.7,76.8,29.95,WSW,248,8.1,8.1,68,0.00,CLR,,0.00,WeatherDisplay:10.37,2013-07-20 17:58:00,
2013-07-20 14:03:00,89.6,77.2,29.95,South,180,5.8,5.8,67,0.00,CLR,,0.00,WeatherDisplay:10.37,2013-07-20 18:03:00,
2013-07-20 14:08:00,89.6,77.2,29.95,South,180,9.7,9.7,67,0.00,CLR,,0.00,WeatherDisplay:10.37,2013-07-20 18:08:00,
2013-07-20 14:13:00,90.0,77.5,29.95,SW,225,8.1,8.1,67,0.00,CLR,,0.00,WeatherDisplay:10.37,2013-07-20 18:13:00,
2013-07-20 14:18:00,90.0,77.5,29.95,South,180,6.9,6.9,67,0.00,BKN,,0.00,WeatherDisplay:10.37,2013-07-20 18:18:00,
2013-07-20 14:24:00,89.8,77.4,29.95,WSW,248,5.8,5.8,67,0.00,BKN,,0.00,WeatherDisplay:10.37,2013-07-20 18:24:00,
2013-07-20 14:29:00,88.9,76.9,29.95,WSW,248,8.1,8.1,68,0.00,BKN,,0.00,WeatherDisplay:10.37,2013-07-20 18:29:00,
2013-07-20 14:34:00,89.6,77.2,29.95,SW,225,9.2,9.2,67,0.00,BKN,,0.00,WeatherDisplay:10.37,2013-07-20 18:34:00,
2013-07-20 14:39:00,90.3,77.9,29.95,SW,225,7.1,7.1,67,0.00,BKN,,0.00,WeatherDisplay:10.37,2013-07-20 18:39:00,
2013-07-20 14:44:00,88.7,76.8,29.95,South,180,6.9,6.9,68,0.00,BKN,,0.00,WeatherDisplay:10.37,2013-07-20 18:44:00,
2013-07-20 14:49:00,88.7,76.8,29.92,South,180,8.1,8.1,68,0.00,BKN,,0.00,WeatherDisplay:10.37,2013-07-20 18:49:00,
2013-07-20 14:54:00,86.7,74.9,29.92,SW,225,8.1,8.1,68,0.00,BKN,,0.00,WeatherDisplay:10.37,2013-07-20 18:54:00,
2013-07-20 14:59:00,87.1,75.2,29.92,West,270,8.1,8.1,68,0.00,BKN,,0.00,WeatherDisplay:10.37,2013-07-20 18:59:00,
2013-07-20 15:04:00,87.8,75.9,29.95,SW,225,6.9,6.9,68,0.00,BKN,,0.00,WeatherDisplay:10.37,2013-07-20 19:04:00,
2013-07-20 15:09:00,86.5,74.7,29.95,SW,225,8.1,8.1,68,0.00,BKN,,0.00,WeatherDisplay:10.37,2013-07-20 19:09:00,
2013-07-20 15:14:00,88.0,76.1,29.95,SW,225,8.1,8.1,68,0.00,BKN,,0.00,WeatherDisplay:10.37,2013-07-20 19:14:00,
2013-07-20 15:19:00,88.7,76.8,29.92,SW,225,8.1,8.1,68,0.00,BKN,,0.00,WeatherDisplay:10.37,2013-07-20 19:19:00,
2013-07-20 15:24:00,88.5,76.6,29.92,SW,225,5.8,5.8,68,0.00,BKN,,0.00,WeatherDisplay:10.37,2013-07-20 19:24:00,
2013-07-20 15:29:00,90.0,77.5,29.92,SW,225,5.8,5.8,67,0.00,BKN,,0.00,WeatherDisplay:10.37,2013-07-20 19:29:00,
2013-07-20 15:35:00,88.3,76.4,29.92,SW,225,6.2,6.2,68,0.00,BKN,,0.00,WeatherDisplay:10.37,2013-07-20 19:35:00,
2013-07-20 15:40:00,87.8,75.9,29.92,South,180,5.8,5.8,68,0.00,BKN,,0.00,WeatherDisplay:10.37,2013-07-20 19:40:00,
2013-07-20 15:45:00,88.2,76.3,29.92,SW,225,8.1,8.1,68,0.00,BKN,,0.00,WeatherDisplay:10.37,2013-07-20 19:45:00,
2013-07-20 15:50:00,88.3,76.4,29.92,West,270,6.9,6.9,68,0.00,BKN,,0.00,WeatherDisplay:10.37,2013-07-20 19:50:00,
2013-07-20 15:55:00,88.9,76.9,29.92,South,180,5.8,5.8,68,0.00,BKN,,0.00,WeatherDisplay:10.37,2013-07-20 19:55:00,
2013-07-20 16:00:00,90.1,77.7,29.92,SW,225,8.1,8.1,67,0.00,BKN,,0.00,WeatherDisplay:10.37,2013-07-20 20:00:00,
2013-07-20 16:05:00,90.3,77.9,29.92,South,180,6.0,6.0,67,0.00,BKN,,0.00,WeatherDisplay:10.37,2013-07-20 20:05:00,
2013-07-20 16:10:00,89.1,77.1,29.92,SW,225,8.1,8.1,68,0.00,BKN,,0.00,WeatherDisplay:10.37,2013-07-20 20:10:00,
2013-07-20 16:15:00,90.9,78.4,29.92,SW,225,4.6,4.6,67,0.00,FEW,,0.00,WeatherDisplay:10.37,2013-07-20 20:15:00,
2013-07-20 16:20:00,90.5,78.0,29.92,South,180,5.8,5.8,67,0.00,FEW,,0.00,WeatherDisplay:10.37,2013-07-20 20:20:00,
2013-07-20 16:25:00,88.3,76.4,29.92,WSW,248,8.1,8.1,68,0.00,FEW,,0.00,WeatherDisplay:10.37,2013-07-20 20:25:00,
2013-07-20 16:30:00,91.0,78.6,29.92,SW,225,4.6,4.6,67,0.00,FEW,,0.00,WeatherDisplay:10.37,2013-07-20 20:30:00,
2013-07-20 16:35:00,88.7,76.8,29.92,SW,225,5.8,5.8,68,0.00,FEW,,0.00,WeatherDisplay:10.37,2013-07-20 20:35:00,
2013-07-20 16:40:00,89.6,77.2,29.92,South,180,3.6,3.6,67,0.00,FEW,,0.00,WeatherDisplay:10.37,2013-07-20 20:40:00,
2013-07-20 16:45:00,89.4,77.5,29.92,SW,225,6.9,6.9,68,0.00,FEW,,0.00,WeatherDisplay:10.37,2013-07-20 20:45:00,
2013-07-20 16:50:00,88.0,76.1,29.89,West,270,5.8,5.8,68,0.00,FEW,,0.00,WeatherDisplay:10.37,2013-07-20 20:50:00,
2013-07-20 16:55:00,88.7,76.8,29.89,SW,225,3.5,3.6,68,0.00,FEW,,0.00,WeatherDisplay:10.37,2013-07-20 20:55:00,
2013-07-20 17:01:00,87.6,75.7,29.89,SW,225,5.8,5.8,68,0.00,FEW,,0.00,WeatherDisplay:10.37,2013-07-20 21:01:00,
2013-07-20 17:06:00,88.9,76.9,29.89,SW,225,4.6,4.6,68,0.00,FEW,,0.00,WeatherDisplay:10.37,2013-07-20 21:06:00,
2013-07-20 17:11:00,87.6,75.7,29.89,SW,225,5.9,5.9,68,0.00,FEW,,0.00,WeatherDisplay:10.37,2013-07-20 21:11:00,
2013-07-20 17:16:00,89.6,77.2,29.89,SW,225,3.6,3.6,67,0.00,FEW,,0.00,WeatherDisplay:10.37,2013-07-20 21:16:00,
2013-07-20 17:21:00,88.0,76.1,29.86,WSW,248,4.6,4.6,68,0.00,FEW,,0.00,WeatherDisplay:10.37,2013-07-20 21:21:00,
2013-07-20 17:26:00,88.5,76.6,29.86,South,180,4.6,4.6,68,0.00,FEW,,0.00,WeatherDisplay:10.37,2013-07-20 21:26:00,
2013-07-20 17:31:00,88.9,76.9,29.86,SW,225,4.6,4.6,68,0.00,FEW,,0.00,WeatherDisplay:10.37,2013-07-20 21:31:00,
2013-07-20 17:36:00,89.2,77.3,29.89,South,180,4.6,4.6,68,0.00,FEW,,0.00,WeatherDisplay:10.37,2013-07-20 21:36:00,
2013-07-20 17:41:00,88.9,76.9,29.89,West,270,4.6,4.6,68,0.00,FEW,,0.00,WeatherDisplay:10.37,2013-07-20 21:41:00,
2013-07-20 17:46:00,88.7,76.8,29.89,SW,225,4.6,4.6,68,0.00,FEW,,0.00,WeatherDisplay:10.37,2013-07-20 21:46:00,
2013-07-20 17:51:00,88.0,76.1,29.89,West,270,5.8,5.8,68,0.00,FEW,,0.00,WeatherDisplay:10.37,2013-07-20 21:51:00,
2013-07-20 17:57:00,86.9,75.1,29.89,West,270,2.3,2.3,68,0.00,FEW,,0.00,WeatherDisplay:10.37,2013-07-20 21:57:00,
2013-07-20 18:02:00,87.3,75.5,29.89,WSW,246,2.0,0.0,68,0.00,FEW,FEW,0.00,WeatherDisplay:10.37,2013-07-20 22:02:00,
2013-07-20 18:07:00,87.3,75.4,29.89,WSW,248,4.6,4.6,68,0.00,FEW,,0.00,WeatherDisplay:10.37,2013-07-20 22:07:00,
2013-07-20 18:12:00,86.9,75.1,29.89,SW,225,3.5,3.5,68,0.00,FEW,,0.00,WeatherDisplay:10.37,2013-07-20 22:12:00,
2013-07-20 18:17:00,86.9,75.1,29.86,SE,135,2.4,2.4,68,0.00,FEW,,0.00,WeatherDisplay:10.37,2013-07-20 22:17:00,
2013-07-20 18:18:00,73.9,32.7,29.95,WSW,254,0.0,3.0,22,0.00,CLR,CLR,0.00,WeatherDisplay:10.37,2013-07-20 22:18:00,
2013-07-20 18:22:00,87.3,75.4,29.86,SW,225,2.3,2.3,68,0.00,FEW,,0.00,WeatherDisplay:10.37,2013-07-20 22:22:00,
2013-07-20 18:27:00,88.0,76.1,29.86,South,180,2.3,2.4,68,0.00,FEW,,0.00,WeatherDisplay:10.37,2013-07-20 22:27:00,
2013-07-20 18:32:00,88.2,76.3,29.89,WSW,248,2.9,2.9,68,0.00,FEW,,0.00,WeatherDisplay:10.37,2013-07-20 22:32:00,
2013-07-20 18:33:00,73.6,33.5,29.95,SSE,158,0.0,3.0,23,0.00,CLR,CLR,0.00,WeatherDisplay:10.37,2013-07-20 22:33:00,
2013-07-20 18:37:00,87.4,75.6,29.89,SW,225,2.3,2.3,68,0.00,FEW,,0.00,WeatherDisplay:10.37,2013-07-20 22:37:00,
2013-07-20 18:42:00,87.8,75.9,29.89,SE,135,2.3,0.0,68,0.00,FEW,,0.00,WeatherDisplay:10.37,2013-07-20 22:42:00,
2013-07-20 18:47:00,88.0,76.1,29.89,WSW,248,1.2,1.2,68,0.00,FEW,,0.00,WeatherDisplay:10.37,2013-07-20 22:47:00,
2013-07-20 18:53:00,88.0,76.1,29.89,SW,225,3.5,3.5,68,0.00,FEW,,0.00,WeatherDisplay:10.37,2013-07-20 22:53:00,
2013-07-20 18:58:00,88.0,76.1,29.89,SW,225,1.4,1.4,68,0.00,FEW,,0.00,WeatherDisplay:10.37,2013-07-20 22:58:00,
2013-07-20 19:03:00,88.2,76.3,29.89,South,180,1.2,0.0,68,0.00,CLR,,0.00,WeatherDisplay:10.37,2013-07-20 23:03:00,
2013-07-20 19:08:00,86.9,75.1,29.89,West,270,2.6,2.6,68,0.00,CLR,,0.00,WeatherDisplay:10.37,2013-07-20 23:08:00,
2013-07-20 19:13:00,88.0,76.1,29.89,SW,225,2.0,2.0,68,0.00,CLR,,0.00,WeatherDisplay:10.37,2013-07-20 23:13:00,
2013-07-20 19:18:00,88.2,76.3,29.89,SSW,205,1.0,0.0,68,0.00,CLR,CLR,0.00,WeatherDisplay:10.37,2013-07-20 23:18:00,
2013-07-20 19:23:00,86.5,74.7,29.89,North,0,1.2,1.2,68,0.00,CLR,,0.00,WeatherDisplay:10.37,2013-07-20 23:23:00,
2013-07-20 19:28:00,85.3,73.5,29.89,NE,45,2.3,0.0,68,0.00,CLR,,0.00,WeatherDisplay:10.37,2013-07-20 23:28:00,
2013-07-20 19:33:00,84.6,72.8,29.89,NE,45,1.2,0.0,68,0.00,CLR,,0.00,WeatherDisplay:10.37,2013-07-20 23:33:00,
2013-07-20 19:38:00,83.8,72.6,29.89,North,0,1.6,1.6,69,0.00,CLR,,0.00,WeatherDisplay:10.37,2013-07-20 23:38:00,
2013-07-20 19:43:00,83.5,72.2,29.89,NE,45,1.2,0.0,69,0.00,CLR,,0.00,WeatherDisplay:10.37,2013-07-20 23:43:00,
2013-07-20 19:48:00,83.3,72.1,29.92,NE,45,0.0,0.0,69,0.00,CLR,,0.00,WeatherDisplay:10.37,2013-07-20 23:48:00,
2013-07-20 19:53:00,83.1,71.9,29.92,NE,45,0.0,0.0,69,0.00,CLR,,0.00,WeatherDisplay:10.37,2013-07-20 23:53:00,
2013-07-20 19:59:00,82.6,71.4,29.92,NE,45,0.0,0.0,69,0.00,CLR,,0.00,WeatherDisplay:10.37,2013-07-20 23:59:00,
2013-07-20 20:03:00,72.7,41.9,29.89,SSW,200,3.0,4.0,33,0.00,CLR,CLR,0.00,WeatherDisplay:10.37,2013-07-21 00:03:00,
2013-07-20 20:04:00,82.0,70.9,29.92,NE,45,0.0,0.0,69,0.00,CLR,,0.00,WeatherDisplay:10.37,2013-07-21 00:04:00,
2013-07-20 20:09:00,81.7,70.5,29.92,NE,45,2.0,2.0,69,0.00,CLR,,0.00,WeatherDisplay:10.37,2013-07-21 00:09:00,
2013-07-20 20:14:00,81.0,69.8,29.92,NE,45,2.3,2.3,69,0.00,CLR,,0.00,WeatherDisplay:10.37,2013-07-21 00:14:00,
2013-07-20 20:18:00,72.7,41.1,29.92,South,182,2.0,6.0,32,0.00,CLR,CLR,0.00,WeatherDisplay:10.37,2013-07-21 00:18:00,
2013-07-20 20:20:00,80.1,69.4,29.92,NE,45,1.4,1.4,70,0.00,CLR,,0.00,WeatherDisplay:10.37,2013-07-21 00:20:00,
2013-07-20 20:25:00,79.5,69.7,29.92,NE,45,2.3,2.3,72,0.00,CLR,,0.00,WeatherDisplay:10.37,2013-07-21 00:25:00,
2013-07-20 20:30:00,79.3,69.5,29.92,NE,45,2.2,2.2,72,0.00,CLR,,0.00,WeatherDisplay:10.37,2013-07-21 00:30:00,
2013-07-20 20:33:00,72.7,41.1,29.92,SSW,199,1.0,3.0,32,0.00,CLR,CLR,0.00,WeatherDisplay:10.37,2013-07-21 00:33:00,
2013-07-20 20:35:00,79.0,69.2,29.92,NE,45,1.6,1.6,72,0.00,BKN,,0.00,WeatherDisplay:10.37,2013-07-21 00:35:00,
2013-07-20 20:40:00,78.6,70.0,29.92,NE,45,2.3,2.3,75,0.00,BKN,,0.00,WeatherDisplay:10.37,2013-07-21 00:40:00,
2013-07-20 20:45:00,78.4,69.9,29.92,NNE,22,1.6,1.6,75,0.00,BKN,,0.00,WeatherDisplay:10.37,2013-07-21 00:45:00,
2013-07-20 20:48:00,72.5,41.7,29.95,North,11,2.0,3.0,33,0.00,CLR,CLR,0.00,WeatherDisplay:10.37,2013-07-21 00:48:00,
2013-07-20 20:50:00,78.4,69.9,29.92,NNE,22,0.0,0.0,75,0.00,BKN,,0.00,WeatherDisplay:10.37,2013-07-21 00:50:00,
2013-07-20 20:55:00,78.1,69.9,29.92,NNE,22,0.0,0.0,76,0.00,BKN,,0.00,WeatherDisplay:10.37,2013-07-21 00:55:00,
2013-07-20 21:01:00,77.9,69.7,29.92,NNE,22,0.0,0.0,76,0.00,BKN,,0.00,WeatherDisplay:10.37,2013-07-21 01:01:00,
2013-07-20 21:03:00,72.5,41.7,29.95,North,3,2.0,3.0,33,0.00,CLR,CLR,0.00,WeatherDisplay:10.37,2013-07-21 01:03:00,
2013-07-20 21:06:00,77.5,69.4,29.92,South,180,2.3,2.3,76,0.00,BKN,,0.00,WeatherDisplay:10.37,2013-07-21 01:06:00,
2013-07-20 21:11:00,77.4,70.3,29.92,SW,225,3.5,3.5,79,0.00,BKN,,0.00,WeatherDisplay:10.37,2013-07-21 01:11:00,
2013-07-20 21:16:00,77.5,72.7,29.92,SW,225,2.3,2.3,85,0.00,BKN,,0.00,WeatherDisplay:10.37,2013-07-21 01:16:00,
2013-07-20 21:18:00,72.1,41.4,29.95,NNE,26,1.0,4.0,33,0.00,CLR,CLR,0.00,WeatherDisplay:10.37,2013-07-21 01:18:00,
2013-07-20 21:21:00,77.9,73.0,29.92,SW,225,2.3,2.3,85,0.00,BKN,,0.00,WeatherDisplay:10.37,2013-07-21 01:21:00,
2013-07-20 21:28:00,78.3,70.8,29.92,SW,225,1.2,1.6,78,0.00,BKN,,0.00,WeatherDisplay:10.37,2013-07-21 01:28:00,
2013-07-20 21:33:00,78.1,70.3,29.92,SW,225,1.2,1.2,77,0.00,BKN,,0.00,WeatherDisplay:10.37,2013-07-21 01:33:00,
2013-07-20 21:38:00,77.9,69.7,29.92,SW,225,0.0,0.0,76,0.00,BKN,,0.00,WeatherDisplay:10.37,2013-07-21 01:38:00,
2013-07-20 21:43:00,77.9,69.7,29.92,SW,225,1.2,0.0,76,0.00,BKN,,0.00,WeatherDisplay:10.37,2013-07-21 01:43:00,
2013-07-20 21:48:00,78.1,69.9,29.95,NW,315,6.0,6.0,76,0.00,BKN,,0.00,WeatherDisplay:10.37,2013-07-21 01:48:00,
2013-07-20 21:53:00,77.4,69.2,29.95,West,270,5.8,5.8,76,0.00,BKN,,0.00,WeatherDisplay:10.37,2013-07-21 01:53:00,
2013-07-20 21:58:00,76.8,68.7,29.95,NE,45,5.8,5.8,76,0.00,BKN,,0.00,WeatherDisplay:10.37,2013-07-21 01:58:00,
2013-07-20 22:03:00,76.5,67.9,29.95,NW,315,6.0,6.0,75,0.00,BKN,,0.00,WeatherDisplay:10.37,2013-07-21 02:03:00,
2013-07-20 22:08:00,76.1,67.6,29.95,NNW,338,3.5,3.5,75,0.00,BKN,,0.00,WeatherDisplay:10.37,2013-07-21 02:08:00,
2013-07-20 22:14:00,75.7,67.2,29.95,NE,45,3.8,3.8,75,0.00,BKN,,0.00,WeatherDisplay:10.37,2013-07-21 02:14:00,
2013-07-20 22:18:00,71.2,42.2,29.92,NNW,346,0.0,2.0,35,0.00,CLR,CLR,0.00,WeatherDisplay:10.37,2013-07-21 02:18:00,
2013-07-20 22:19:00,75.6,67.1,29.95,NE,45,4.6,4.6,75,0.00,BKN,,0.00,WeatherDisplay:10.37,2013-07-21 02:19:00,
2013-07-20 22:24:00,75.4,66.9,29.95,NNW,338,3.6,3.6,75,0.00,BKN,,0.00,WeatherDisplay:10.37,2013-07-21 02:24:00,
2013-07-20 22:29:00,75.2,66.7,29.95,NW,315,2.6,2.6,75,0.00,BKN,,0.00,WeatherDisplay:10.37,2013-07-21 02:29:00,
2013-07-20 22:33:00,70.9,42.6,29.92,NW,315,0.0,0.0,36,0.00,CLR,CLR,0.00,WeatherDisplay:10.37,2013-07-21 02:33:00,
2013-07-20 22:34:00,75.2,67.1,29.95,NNW,338,4.6,4.6,76,0.00,BKN,,0.00,WeatherDisplay:10.37,2013-07-21 02:34:00,
2013-07-20 22:39:00,75.0,66.9,29.95,East,90,2.3,2.4,76,0.00,BKN,,0.00,WeatherDisplay:10.37,2013-07-21 02:39:00,
2013-07-20 22:44:00,74.8,66.8,29.95,NNW,338,2.3,2.3,76,0.00,BKN,,0.00,WeatherDisplay:10.37,2013-07-21 02:44:00,
2013-07-20 22:48:00,70.5,43.0,29.92,SW,225,0.0,0.0,37,0.00,CLR,CLR,0.00,WeatherDisplay:10.37,2013-07-21 02:48:00,
2013-07-20 22:49:00,74.8,66.8,29.95,North,0,2.3,2.3,76,0.00,BKN,,0.00,WeatherDisplay:10.37,2013-07-21 02:49:00,
2013-07-20 22:54:00,74.7,66.6,29.95,South,180,2.3,2.3,76,0.00,BKN,,0.00,WeatherDisplay:10.37,2013-07-21 02:54:00,
2013-07-20 22:59:00,74.5,66.8,29.95,WSW,248,4.6,4.6,77,0.00,BKN,,0.00,WeatherDisplay:10.37,2013-07-21 02:59:00,
2013-07-20 23:03:00,70.3,42.8,29.92,SW,225,0.0,0.0,37,0.00,CLR,CLR,0.00,WeatherDisplay:10.37,2013-07-21 03:03:00,
2013-07-20 23:04:00,74.5,66.8,29.95,WNW,292,2.3,0.0,77,0.00,-RA,,0.00,WeatherDisplay:10.37,2013-07-21 03:04:00,
2013-07-20 23:09:00,74.3,66.6,29.95,SW,225,2.4,2.4,77,0.00,-RA,,0.00,WeatherDisplay:10.37,2013-07-21 03:09:00,
2013-07-20 23:15:00,74.1,66.4,29.95,West,270,0.9,0.0,77,0.00,-RA,,0.00,WeatherDisplay:10.37,2013-07-21 03:15:00,
2013-07-20 23:18:00,70.2,44.0,29.92,NNE,19,0.0,1.0,39,0.00,CLR,CLR,0.00,WeatherDisplay:10.37,2013-07-21 03:18:00,
2013-07-20 23:33:00,70.0,43.9,29.92,NNE,22,0.0,0.0,39,0.00,CLR,CLR,0.00,WeatherDisplay:10.37,2013-07-21 03:33:00,
2013-07-20 23:48:00,69.6,46.1,29.92,WSW,243,0.0,1.0,43,0.00,CLR,CLR,0.00,WeatherDisplay:10.37,2013-07-21 03:48:00,